createdAt,value
2018-11-02T00:01:08.880Z,7.45
2018-11-02T00:02:13.015Z,7.20
2018-11-02T00:03:17.080Z,7.20
2018-11-02T00:04:21.282Z,6.80
2018-11-02T00:05:25.419Z,7.40
2018-11-02T00:06:30.239Z,8.35
2018-11-02T00:07:34.204Z,6.90
2018-11-02T00:08:38.361Z,7.30
2018-11-02T00:09:42.460Z,7.10
2018-11-02T00:10:46.594Z,7.30
2018-11-02T00:11:50.803Z,7.95
2018-11-02T00:12:55.275Z,6.45
2018-11-02T00:14:00.108Z,6.85
2018-11-02T00:15:04.386Z,7.75
2018-11-02T00:16:08.481Z,6.65
2018-11-02T00:17:12.632Z,6.45
2018-11-02T00:18:16.785Z,5.92
2018-11-02T00:19:26.251Z,6.33
2018-11-02T00:20:30.597Z,6.22
2018-11-02T00:21:34.786Z,5.60
2018-11-02T00:22:39.154Z,5.12
2018-11-02T00:23:43.215Z,5.70
2018-11-02T00:24:47.407Z,4.90
2018-11-02T00:25:51.545Z,5.10
2018-11-02T00:26:55.684Z,4.95
2018-11-02T00:27:59.855Z,5.30
2018-11-02T00:29:04.131Z,4.78
2018-11-02T00:30:08.302Z,4.60
2018-11-02T00:31:12.479Z,5.50
2018-11-02T00:32:16.724Z,4.90
2018-11-02T00:33:20.888Z,4.50
2018-11-02T00:34:25.010Z,5.15
2018-11-02T00:35:29.241Z,4.55
2018-11-02T00:36:33.780Z,4.35
2018-11-02T00:37:38.492Z,4.80
2018-11-02T00:38:42.658Z,5.58
2018-11-02T00:39:47.408Z,5.00
2018-11-02T00:40:51.480Z,5.20
2018-11-02T00:41:55.719Z,4.25
2018-11-02T00:42:59.899Z,4.25
2018-11-02T00:44:04.281Z,4.40
2018-11-02T00:45:10.010Z,4.97
2018-11-02T00:46:14.111Z,4.55
2018-11-02T00:47:18.212Z,4.37
2018-11-02T00:48:22.328Z,4.28
2018-11-02T00:49:26.586Z,3.50
2018-11-02T00:50:30.826Z,3.35
2018-11-02T00:51:35.552Z,3.80
2018-11-02T00:52:39.653Z,3.90
2018-11-02T00:53:43.785Z,3.77
2018-11-02T00:54:47.789Z,3.83
2018-11-02T00:55:51.911Z,3.30
2018-11-02T00:56:56.021Z,3.25
2018-11-02T00:58:00.942Z,2.55
2018-11-02T00:59:05.182Z,2.60
2018-11-02T01:00:11.510Z,2.67
2018-11-02T01:01:16.281Z,2.52
2018-11-02T01:02:20.425Z,2.45
2018-11-02T01:03:24.839Z,2.10
2018-11-02T01:04:28.984Z,2.95
2018-11-02T01:05:33.390Z,2.27
2018-11-02T01:06:38.015Z,2.75
2018-11-02T01:07:42.223Z,2.27
2018-11-02T01:08:46.359Z,2.65
2018-11-02T01:09:50.565Z,2.25
2018-11-02T01:10:54.636Z,2.52
2018-11-02T01:11:59.893Z,2.37
2018-11-02T01:13:04.118Z,2.17
2018-11-02T01:14:09.053Z,1.80
2018-11-02T01:15:13.160Z,2.25
2018-11-02T01:16:17.448Z,2.40
2018-11-02T01:17:21.559Z,2.30
2018-11-02T01:18:25.812Z,2.12
2018-11-02T01:19:33.856Z,2.47
2018-11-02T01:20:37.953Z,1.95
2018-11-02T01:21:42.064Z,2.02
2018-11-02T01:22:46.240Z,2.33
2018-11-02T01:23:50.934Z,1.95
2018-11-02T01:24:54.988Z,2.55
2018-11-02T01:25:59.260Z,1.82
2018-11-02T01:27:03.442Z,2.08
2018-11-02T01:28:07.717Z,1.62
2018-11-02T01:29:11.841Z,2.02
2018-11-02T01:30:15.913Z,1.95
2018-11-02T01:31:20.170Z,2.00
2018-11-02T01:32:24.363Z,1.80
2018-11-02T01:33:33.738Z,1.60
2018-11-02T01:34:37.849Z,2.85
2018-11-02T01:35:42.076Z,1.87
2018-11-02T01:36:46.149Z,1.80
2018-11-02T01:37:50.288Z,1.70
2018-11-02T01:38:54.449Z,1.72
2018-11-02T01:39:58.777Z,1.80
2018-11-02T01:41:03.292Z,1.30
2018-11-02T01:42:07.453Z,1.70
2018-11-02T01:43:11.705Z,1.72
2018-11-02T01:44:15.775Z,1.50
2018-11-02T01:45:20.002Z,1.45
2018-11-02T01:46:24.080Z,1.45
2018-11-02T01:47:28.290Z,1.70
2018-11-02T01:48:32.406Z,1.55
2018-11-02T01:49:36.543Z,1.75
2018-11-02T01:50:40.692Z,1.50
2018-11-02T01:51:44.832Z,1.60
2018-11-02T01:52:48.975Z,2.00
2018-11-02T01:53:53.214Z,1.50
2018-11-02T01:54:57.336Z,1.70
2018-11-02T01:56:01.723Z,1.70
2018-11-02T01:57:06.345Z,1.80
2018-11-02T01:58:10.613Z,1.62
2018-11-02T01:59:14.750Z,1.50
2018-11-02T02:00:18.933Z,1.55
2018-11-02T02:01:23.081Z,2.77
2018-11-02T02:02:27.246Z,1.40
2018-11-02T02:03:31.490Z,1.80
2018-11-02T02:04:35.670Z,1.82
2018-11-02T02:05:40.353Z,1.90
2018-11-02T02:06:44.461Z,1.50
2018-11-02T02:07:48.566Z,1.77
2018-11-02T02:08:53.055Z,2.33
2018-11-02T02:09:57.177Z,2.15
2018-11-02T02:11:01.309Z,1.90
2018-11-02T02:12:05.947Z,2.10
2018-11-02T02:13:10.160Z,2.00
2018-11-02T02:14:14.390Z,2.42
2018-11-02T02:15:18.515Z,2.30
2018-11-02T02:16:22.725Z,2.40
2018-11-02T02:17:27.824Z,2.22
2018-11-02T02:18:32.024Z,2.00
2018-11-02T02:19:36.189Z,2.65
2018-11-02T02:20:43.452Z,2.20
2018-11-02T02:21:47.714Z,2.20
2018-11-02T02:22:51.781Z,2.30
2018-11-02T02:23:55.956Z,3.20
2018-11-02T02:25:00.080Z,2.20
2018-11-02T02:26:04.647Z,2.70
2018-11-02T02:27:08.733Z,2.40
2018-11-02T02:28:12.940Z,2.77
2018-11-02T02:29:17.184Z,2.33
2018-11-02T02:30:21.255Z,2.70
2018-11-02T02:31:25.675Z,2.75
2018-11-02T02:32:29.810Z,2.05
2018-11-02T02:33:34.791Z,2.47
2018-11-02T02:34:38.898Z,2.40
2018-11-02T02:35:43.033Z,2.52
2018-11-02T02:36:47.193Z,2.65
2018-11-02T02:37:51.261Z,3.02
2018-11-02T02:38:55.373Z,3.22
2018-11-02T02:39:59.607Z,2.95
2018-11-02T02:41:03.716Z,3.40
2018-11-02T02:42:07.926Z,3.47
2018-11-02T02:43:12.718Z,3.55
2018-11-02T02:44:16.803Z,3.67
2018-11-02T02:45:21.041Z,3.95
2018-11-02T02:46:25.727Z,4.22
2018-11-02T02:47:29.974Z,3.55
2018-11-02T02:48:34.231Z,3.80
2018-11-02T02:49:38.340Z,4.05
2018-11-02T02:50:42.546Z,3.77
2018-11-02T02:51:46.587Z,3.87
2018-11-02T02:52:51.166Z,4.42
2018-11-02T02:53:55.279Z,4.22
2018-11-02T02:54:59.825Z,4.28
2018-11-02T02:56:03.893Z,4.60
2018-11-02T02:57:08.036Z,4.22
2018-11-02T02:58:12.326Z,5.35
2018-11-02T02:59:16.715Z,4.85
2018-11-02T03:00:20.913Z,5.50
2018-11-02T03:01:24.981Z,5.10
2018-11-02T03:02:29.213Z,5.20
2018-11-02T03:03:33.295Z,5.60
2018-11-02T03:04:37.455Z,5.70
2018-11-02T03:05:41.881Z,5.33
2018-11-02T03:06:46.021Z,4.33
2018-11-02T03:07:50.135Z,5.20
2018-11-02T03:08:54.885Z,5.00
2018-11-02T03:09:58.977Z,5.12
2018-11-02T03:11:03.383Z,4.97
2018-11-02T03:12:07.392Z,5.12
2018-11-02T03:13:11.506Z,5.10
2018-11-02T03:14:15.841Z,4.55
2018-11-02T03:15:19.924Z,4.62
2018-11-02T03:16:24.205Z,4.95
2018-11-02T03:17:28.288Z,5.10
2018-11-02T03:18:32.497Z,5.20
2018-11-02T03:19:36.618Z,5.92
2018-11-02T03:20:40.880Z,5.45
2018-11-02T03:21:44.907Z,5.90
2018-11-02T03:22:49.032Z,6.15
2018-11-02T03:23:53.156Z,5.80
2018-11-02T03:24:57.362Z,6.03
2018-11-02T03:26:01.483Z,5.72
2018-11-02T03:27:05.624Z,5.92
2018-11-02T03:28:09.819Z,5.62
2018-11-02T03:29:13.955Z,7.05
2018-11-02T03:30:18.065Z,6.22
2018-11-02T03:31:22.219Z,6.78
2018-11-02T03:32:26.325Z,7.50
2018-11-02T03:33:30.358Z,7.25
2018-11-02T03:34:34.615Z,7.87
2018-11-02T03:35:38.778Z,7.70
2018-11-02T03:36:43.018Z,6.67
2018-11-02T03:37:47.018Z,8.08
2018-11-02T03:38:51.244Z,7.97
2018-11-02T03:39:55.311Z,8.08
2018-11-02T03:40:59.530Z,8.38
2018-11-02T03:42:03.785Z,8.15
2018-11-02T03:43:07.927Z,8.13
2018-11-02T03:44:12.185Z,7.87
2018-11-02T03:45:16.318Z,7.67
2018-11-02T03:46:20.438Z,8.75
2018-11-02T03:47:24.517Z,7.55
2018-11-02T03:48:28.805Z,8.93
2018-11-02T03:49:33.770Z,9.65
2018-11-02T03:50:38.488Z,8.08
2018-11-02T03:51:42.732Z,8.80
2018-11-02T03:52:46.978Z,8.58
2018-11-02T03:53:51.106Z,7.83
2018-11-02T03:54:55.263Z,9.70
2018-11-02T03:55:59.820Z,8.10
2018-11-02T03:57:03.970Z,9.20
2018-11-02T03:58:08.131Z,8.23
2018-11-02T03:59:12.687Z,8.95
2018-11-02T04:00:16.872Z,8.58
2018-11-02T04:01:21.218Z,9.13
2018-11-02T04:02:25.479Z,9.55
2018-11-02T04:03:29.662Z,9.70
2018-11-02T04:04:33.934Z,8.90
2018-11-02T04:05:38.045Z,9.05
2018-11-02T04:06:42.684Z,9.05
2018-11-02T04:07:46.898Z,10.35
2018-11-02T04:08:51.109Z,9.35
2018-11-02T04:09:55.227Z,10.80
2018-11-02T04:10:59.426Z,9.95
2018-11-02T04:12:03.585Z,10.05
2018-11-02T04:13:07.701Z,10.13
2018-11-02T04:14:11.911Z,9.90
2018-11-02T04:15:16.125Z,9.65
2018-11-02T04:16:20.313Z,10.90
2018-11-02T04:17:25.099Z,9.90
2018-11-02T04:18:29.319Z,9.90
2018-11-02T04:19:33.487Z,10.98
2018-11-02T04:20:37.657Z,10.00
2018-11-02T04:21:47.390Z,11.05
2018-11-02T04:22:54.969Z,9.95
2018-11-02T04:24:03.523Z,12.47
2018-11-02T04:25:07.752Z,10.20
2018-11-02T04:26:12.699Z,9.45
2018-11-02T04:27:16.915Z,10.35
2018-11-02T04:28:21.052Z,11.45
2018-11-02T04:29:25.239Z,9.80
2018-11-02T04:30:29.351Z,10.43
2018-11-02T04:31:33.407Z,10.63
2018-11-02T04:32:37.573Z,11.43
2018-11-02T04:33:41.785Z,11.05
2018-11-02T04:34:46.111Z,10.58
2018-11-02T04:35:50.254Z,10.75
2018-11-02T04:36:54.475Z,10.90
2018-11-02T04:37:58.837Z,10.98
2018-11-02T04:39:03.060Z,11.12
2018-11-02T04:40:07.711Z,12.15
2018-11-02T04:41:11.951Z,10.20
2018-11-02T04:42:16.116Z,11.25
2018-11-02T04:43:20.312Z,10.58
2018-11-02T04:44:24.398Z,10.80
2018-11-02T04:45:32.775Z,11.18
2018-11-02T04:46:37.232Z,11.80
2018-11-02T04:47:41.368Z,12.10
2018-11-02T04:48:45.727Z,12.28
2018-11-02T04:49:49.868Z,11.57
2018-11-02T04:50:54.056Z,11.68
2018-11-02T04:51:58.115Z,11.85
2018-11-02T04:53:02.867Z,11.88
2018-11-02T04:54:07.005Z,12.00
2018-11-02T04:55:11.221Z,13.15
2018-11-02T04:56:15.392Z,11.68
2018-11-02T04:57:19.476Z,11.10
2018-11-02T04:58:23.658Z,11.33
2018-11-02T04:59:27.880Z,10.90
2018-11-02T05:00:32.542Z,11.68
2018-11-02T05:01:36.852Z,11.48
2018-11-02T05:02:40.909Z,12.33
2018-11-02T05:03:45.072Z,12.35
2018-11-02T05:04:49.273Z,11.97
2018-11-02T05:05:53.442Z,12.33
2018-11-02T05:06:57.675Z,12.07
2018-11-02T05:08:02.060Z,11.28
2018-11-02T05:09:07.873Z,12.40
2018-11-02T05:10:12.056Z,11.97
2018-11-02T05:11:16.568Z,13.05
2018-11-02T05:12:20.703Z,12.13
2018-11-02T05:13:24.848Z,12.30
2018-11-02T05:14:29.153Z,13.15
2018-11-02T05:15:33.244Z,12.37
2018-11-02T05:16:37.318Z,12.63
2018-11-02T05:17:41.518Z,12.15
2018-11-02T05:18:45.787Z,12.20
2018-11-02T05:19:49.829Z,12.88
2018-11-02T05:20:53.972Z,13.15
2018-11-02T05:21:58.057Z,11.60
2018-11-02T05:23:02.145Z,11.75
2018-11-02T05:24:06.242Z,12.65
2018-11-02T05:25:10.865Z,11.95
2018-11-02T05:26:15.048Z,10.80
2018-11-02T05:27:19.155Z,11.95
2018-11-02T05:28:23.356Z,11.83
2018-11-02T05:29:27.484Z,11.68
2018-11-02T05:30:31.666Z,10.95
2018-11-02T05:31:36.211Z,11.60
2018-11-02T05:32:40.598Z,12.05
2018-11-02T05:33:44.786Z,12.37
2018-11-02T05:34:49.019Z,12.58
2018-11-02T05:35:53.121Z,10.50
2018-11-02T05:36:57.317Z,12.70
2018-11-02T05:38:01.444Z,11.65
2018-11-02T05:39:08.594Z,12.20
2018-11-02T05:40:12.901Z,11.88
2018-11-02T05:41:17.112Z,10.75
2018-11-02T05:42:21.373Z,12.20
2018-11-02T05:43:25.456Z,10.88
2018-11-02T05:44:30.170Z,11.75
2018-11-02T05:45:34.419Z,10.55
2018-11-02T05:46:38.631Z,9.85
2018-11-02T05:47:42.711Z,10.72
2018-11-02T05:48:46.930Z,11.53
2018-11-02T05:49:51.265Z,11.18
2018-11-02T05:50:55.476Z,11.08
2018-11-02T05:51:59.595Z,10.90
2018-11-02T05:53:04.442Z,12.55
2018-11-02T05:54:08.711Z,11.10
2018-11-02T05:55:12.909Z,11.45
2018-11-02T05:56:17.101Z,10.75
2018-11-02T05:57:21.349Z,12.07
2018-11-02T05:58:25.707Z,11.43
2018-11-02T05:59:29.915Z,11.15
2018-11-02T06:00:34.119Z,10.90
2018-11-02T06:01:39.158Z,10.80
2018-11-02T06:02:43.229Z,11.50
2018-11-02T06:03:47.792Z,10.50
2018-11-02T06:04:51.987Z,10.82
2018-11-02T06:05:56.138Z,10.68
2018-11-02T06:07:00.449Z,12.47
2018-11-02T06:08:05.022Z,10.95
2018-11-02T06:09:09.418Z,11.20
2018-11-02T06:10:13.573Z,10.70
2018-11-02T06:11:17.791Z,10.90
2018-11-02T06:12:21.911Z,11.75
2018-11-02T06:13:26.139Z,11.73
2018-11-02T06:14:30.295Z,12.75
2018-11-02T06:15:34.592Z,12.37
2018-11-02T06:16:38.839Z,11.83
2018-11-02T06:17:42.922Z,11.85
2018-11-02T06:18:47.200Z,12.73
2018-11-02T06:19:51.257Z,13.08
2018-11-02T06:20:55.333Z,13.70
2018-11-02T06:21:59.465Z,11.95
2018-11-02T06:23:03.637Z,13.20
2018-11-02T06:24:07.800Z,12.40
2018-11-02T06:25:11.944Z,12.53
2018-11-02T06:26:16.142Z,14.03
2018-11-02T06:27:20.340Z,16.15
2018-11-02T06:28:24.509Z,13.18
2018-11-02T06:29:29.799Z,14.65
2018-11-02T06:30:34.309Z,13.85
2018-11-02T06:31:38.658Z,13.88
2018-11-02T06:32:42.843Z,15.25
2018-11-02T06:33:47.017Z,15.08
2018-11-02T06:34:51.091Z,14.07
2018-11-02T06:35:55.316Z,12.00
2018-11-02T06:36:59.523Z,12.88
2018-11-02T06:38:03.613Z,11.48
2018-11-02T06:39:09.047Z,13.62
2018-11-02T06:40:13.095Z,12.73
2018-11-02T06:41:17.523Z,11.73
2018-11-02T06:42:21.695Z,12.88
2018-11-02T06:43:25.855Z,13.18
2018-11-02T06:44:30.148Z,11.15
2018-11-02T06:45:34.513Z,11.85
2018-11-02T06:46:38.820Z,11.50
2018-11-02T06:47:42.965Z,11.95
2018-11-02T06:48:47.622Z,12.40
2018-11-02T06:49:51.717Z,12.07
2018-11-02T06:50:55.894Z,11.68
2018-11-02T06:52:00.057Z,12.37
2018-11-02T06:53:04.568Z,12.63
2018-11-02T06:54:08.695Z,11.45
2018-11-02T06:55:12.716Z,11.60
2018-11-02T06:56:16.931Z,11.73
2018-11-02T06:57:21.021Z,11.25
2018-11-02T06:58:31.485Z,10.58
2018-11-02T06:59:35.707Z,13.78
2018-11-02T07:00:40.077Z,11.53
2018-11-02T07:01:44.429Z,13.08
2018-11-02T07:02:48.475Z,11.63
2018-11-02T07:03:52.555Z,11.00
2018-11-02T07:04:56.843Z,12.23
2018-11-02T07:06:00.939Z,11.70
2018-11-02T07:07:05.280Z,10.58
2018-11-02T07:08:09.458Z,12.45
2018-11-02T07:09:13.824Z,10.95
2018-11-02T07:10:17.891Z,11.28
2018-11-02T07:11:21.987Z,12.90
2018-11-02T07:12:26.398Z,11.55
2018-11-02T07:13:30.628Z,11.35
2018-11-02T07:14:34.862Z,11.30
2018-11-02T07:15:39.090Z,10.75
2018-11-02T07:16:43.171Z,11.45
2018-11-02T07:17:47.264Z,11.83
2018-11-02T07:18:51.509Z,11.57
2018-11-02T07:19:55.627Z,10.70
2018-11-02T07:20:59.884Z,10.90
2018-11-02T07:22:04.012Z,11.88
2018-11-02T07:23:08.101Z,11.65
2018-11-02T07:24:12.404Z,11.90
2018-11-02T07:25:16.736Z,11.63
2018-11-02T07:26:20.657Z,11.33
2018-11-02T07:27:24.798Z,11.35
2018-11-02T07:28:28.987Z,11.25
2018-11-02T07:29:34.001Z,10.78
2018-11-02T07:30:38.055Z,10.95
2018-11-02T07:31:42.161Z,11.68
2018-11-02T07:32:46.252Z,11.80
2018-11-02T07:33:50.507Z,11.95
2018-11-02T07:34:55.037Z,12.40
2018-11-02T07:35:59.168Z,14.63
2018-11-02T07:37:03.337Z,12.03
2018-11-02T07:38:07.462Z,11.15
2018-11-02T07:39:11.963Z,12.90
2018-11-02T07:40:16.116Z,13.83
2018-11-02T07:41:20.276Z,10.78
2018-11-02T07:42:24.417Z,12.30
2018-11-02T07:43:28.576Z,13.10
2018-11-02T07:44:32.716Z,12.50
2018-11-02T07:45:36.802Z,12.30
2018-11-02T07:46:41.023Z,12.60
2018-11-02T07:47:45.325Z,12.47
2018-11-02T07:48:49.381Z,12.10
2018-11-02T07:49:53.627Z,11.45
2018-11-02T07:50:57.703Z,11.95
2018-11-02T07:52:01.802Z,12.73
2018-11-02T07:53:05.907Z,12.25
2018-11-02T07:54:10.017Z,12.98
2018-11-02T07:55:15.074Z,14.60
2018-11-02T07:56:19.120Z,11.70
2018-11-02T07:57:23.575Z,12.95
2018-11-02T07:58:27.732Z,12.63
2018-11-02T07:59:31.885Z,12.60
2018-11-02T08:00:36.056Z,12.10
2018-11-02T08:01:40.168Z,12.55
2018-11-02T08:02:45.653Z,13.55
2018-11-02T08:03:50.122Z,12.82
2018-11-02T08:04:54.170Z,13.25
2018-11-02T08:05:58.370Z,12.05
2018-11-02T08:07:02.539Z,13.03
2018-11-02T08:08:06.828Z,12.75
2018-11-02T08:09:12.755Z,12.55
2018-11-02T08:10:16.844Z,12.43
2018-11-02T08:11:21.010Z,12.90
2018-11-02T08:12:25.166Z,12.93
2018-11-02T08:13:29.366Z,12.55
2018-11-02T08:14:33.502Z,13.35
2018-11-02T08:15:37.642Z,13.90
2018-11-02T08:16:42.038Z,13.53
2018-11-02T08:17:46.598Z,13.30
2018-11-02T08:18:50.625Z,14.35
2018-11-02T08:19:54.763Z,12.00
2018-11-02T08:20:58.850Z,13.62
2018-11-02T08:22:03.669Z,13.18
2018-11-02T08:23:14.396Z,12.65
2018-11-02T08:24:18.438Z,12.53
2018-11-02T08:25:22.664Z,12.45
2018-11-02T08:26:27.303Z,14.05
2018-11-02T08:27:31.541Z,12.78
2018-11-02T08:28:35.712Z,12.25
2018-11-02T08:29:39.831Z,12.05
2018-11-02T08:30:43.953Z,11.93
2018-11-02T08:31:48.133Z,12.23
2018-11-02T08:32:52.487Z,13.22
2018-11-02T08:33:56.586Z,11.53
2018-11-02T08:35:00.813Z,14.85
2018-11-02T08:36:05.032Z,13.60
2018-11-02T08:37:09.236Z,14.35
2018-11-02T08:38:13.397Z,12.13
2018-11-02T08:39:17.741Z,11.30
2018-11-02T08:40:21.806Z,13.78
2018-11-02T08:41:25.903Z,13.85
2018-11-02T08:42:36.657Z,12.85
2018-11-02T08:43:40.791Z,14.40
2018-11-02T08:44:44.998Z,14.65
2018-11-02T08:45:49.970Z,13.80
2018-11-02T08:46:54.189Z,13.00
2018-11-02T08:47:58.484Z,13.10
2018-11-02T08:49:02.612Z,13.25
2018-11-02T08:50:08.177Z,14.38
2018-11-02T08:51:12.264Z,14.00
2018-11-02T08:52:16.390Z,12.28
2018-11-02T08:53:20.621Z,13.90
2018-11-02T08:54:24.689Z,14.35
2018-11-02T08:55:28.763Z,13.43
2018-11-02T08:56:32.937Z,13.00
2018-11-02T08:57:37.531Z,13.45
2018-11-02T08:58:41.795Z,14.90
2018-11-02T08:59:52.389Z,14.43
2018-11-02T09:00:58.534Z,13.95
2018-11-02T09:02:02.719Z,12.40
2018-11-02T09:03:06.827Z,12.95
2018-11-02T09:04:10.978Z,13.70
2018-11-02T09:05:15.136Z,13.72
2018-11-02T09:06:19.437Z,13.05
2018-11-02T09:07:23.499Z,13.25
2018-11-02T09:08:27.741Z,13.35
2018-11-02T09:09:31.838Z,13.30
2018-11-02T09:10:36.196Z,13.80
2018-11-02T09:11:40.293Z,13.30
2018-11-02T09:12:44.462Z,12.55
2018-11-02T09:13:48.625Z,12.90
2018-11-02T09:14:52.812Z,13.03
2018-11-02T09:15:57.011Z,13.22
2018-11-02T09:17:01.084Z,12.58
2018-11-02T09:18:05.269Z,12.65
2018-11-02T09:19:09.378Z,12.80
2018-11-02T09:20:13.559Z,13.45
2018-11-02T09:21:17.736Z,12.68
2018-11-02T09:22:21.999Z,12.93
2018-11-02T09:23:26.203Z,14.25
2018-11-02T09:24:30.405Z,12.75
2018-11-02T09:25:34.583Z,13.58
2018-11-02T09:26:38.833Z,12.58
2018-11-02T09:27:43.286Z,12.35
2018-11-02T09:28:47.732Z,13.00
2018-11-02T09:29:52.021Z,12.90
2018-11-02T09:30:56.749Z,12.68
2018-11-02T09:32:01.043Z,12.75
2018-11-02T09:33:05.507Z,12.53
2018-11-02T09:34:09.696Z,11.90
2018-11-02T09:35:14.752Z,12.55
2018-11-02T09:36:18.833Z,12.85
2018-11-02T09:37:22.934Z,12.88
2018-11-02T09:38:27.185Z,11.80
2018-11-02T09:39:31.276Z,12.63
2018-11-02T09:40:35.561Z,12.18
2018-11-02T09:41:39.590Z,13.43
2018-11-02T09:42:43.868Z,11.83
2018-11-02T09:43:47.771Z,11.68
2018-11-02T09:44:51.905Z,11.53
2018-11-02T09:45:56.114Z,11.55
2018-11-02T09:47:00.290Z,10.68
2018-11-02T09:48:05.381Z,12.58
2018-11-02T09:49:09.612Z,11.45
2018-11-02T09:50:13.887Z,10.85
2018-11-02T09:51:18.080Z,11.75
2018-11-02T09:52:22.498Z,11.95
2018-11-02T09:53:26.756Z,11.97
2018-11-02T09:54:30.972Z,11.73
2018-11-02T09:55:35.131Z,11.50
2018-11-02T09:56:39.211Z,10.88
2018-11-02T09:57:44.463Z,11.60
2018-11-02T09:58:48.594Z,10.38
2018-11-02T09:59:52.780Z,11.97
2018-11-02T10:00:57.539Z,11.53
2018-11-02T10:02:01.779Z,10.63
2018-11-02T10:03:06.353Z,10.00
2018-11-02T10:04:10.561Z,10.23
2018-11-02T10:05:15.089Z,9.65
2018-11-02T10:06:19.263Z,9.25
2018-11-02T10:07:24.107Z,9.90
2018-11-02T10:08:28.429Z,9.90
2018-11-02T10:09:32.483Z,8.58
2018-11-02T10:10:37.134Z,8.85
2018-11-02T10:11:41.311Z,8.70
2018-11-02T10:12:45.464Z,8.45
2018-11-02T10:13:50.443Z,8.73
2018-11-02T10:14:54.675Z,9.08
2018-11-02T10:15:59.049Z,8.18
2018-11-02T10:17:03.317Z,10.53
2018-11-02T10:18:07.523Z,7.28
2018-11-02T10:19:11.941Z,8.63
2018-11-02T10:20:15.981Z,8.53
2018-11-02T10:21:20.415Z,8.58
2018-11-02T10:22:24.541Z,8.40
2018-11-02T10:23:28.817Z,7.35
2018-11-02T10:24:33.023Z,7.80
2018-11-02T10:25:37.108Z,7.60
2018-11-02T10:26:41.595Z,7.40
2018-11-02T10:27:45.720Z,7.00
2018-11-02T10:28:50.127Z,6.67
2018-11-02T10:29:54.261Z,8.23
2018-11-02T10:30:58.503Z,8.18
2018-11-02T10:32:02.681Z,6.80
2018-11-02T10:33:06.806Z,7.03
2018-11-02T10:34:11.161Z,7.50
2018-11-02T10:35:15.367Z,8.15
2018-11-02T10:36:19.525Z,8.33
2018-11-02T10:37:23.761Z,7.35
2018-11-02T10:38:28.011Z,7.08
2018-11-02T10:39:33.265Z,5.97
2018-11-02T10:40:38.701Z,7.78
2018-11-02T10:41:49.921Z,6.30
2018-11-02T10:42:56.154Z,6.78
2018-11-02T10:44:00.514Z,5.35
2018-11-02T10:45:05.167Z,5.85
2018-11-02T10:46:09.293Z,5.75
2018-11-02T10:47:13.620Z,5.50
2018-11-02T10:48:17.717Z,6.45
2018-11-02T10:49:21.869Z,5.62
2018-11-02T10:50:26.023Z,6.45
2018-11-02T10:51:30.153Z,5.80
2018-11-02T10:52:34.215Z,6.15
2018-11-02T10:53:38.330Z,6.20
2018-11-02T10:54:42.629Z,6.00
2018-11-02T10:55:46.643Z,5.90
2018-11-02T10:56:50.837Z,7.10
2018-11-02T10:57:55.067Z,5.92
2018-11-02T10:58:59.239Z,6.42
2018-11-02T11:00:03.448Z,5.53
2018-11-02T11:02:10.562Z,5.40
2018-11-02T11:03:14.712Z,6.53
2018-11-02T11:04:19.097Z,6.95
2018-11-02T11:05:23.452Z,6.25
2018-11-02T11:06:27.510Z,8.28
2018-11-02T11:07:31.676Z,7.50
2018-11-02T11:08:35.967Z,6.47
2018-11-02T11:09:40.147Z,6.70
2018-11-02T11:10:44.310Z,6.45
2018-11-02T11:11:48.630Z,7.62
2018-11-02T11:12:53.088Z,6.42
2018-11-02T11:13:56.861Z,6.90
2018-11-02T11:15:01.016Z,6.53
2018-11-02T11:16:05.428Z,8.08
2018-11-02T11:17:09.677Z,8.43
2018-11-02T11:18:13.783Z,7.90
2018-11-02T11:19:17.930Z,7.40
2018-11-02T11:20:22.169Z,7.67
2018-11-02T11:21:26.498Z,7.45
2018-11-02T11:22:30.860Z,8.05
2018-11-02T11:23:35.072Z,7.00
2018-11-02T11:24:39.213Z,6.28
2018-11-02T11:25:43.365Z,6.12
2018-11-02T11:26:47.520Z,6.45
2018-11-02T11:27:51.719Z,6.35
2018-11-02T11:28:55.993Z,7.83
2018-11-02T11:30:00.121Z,7.78
2018-11-02T11:31:04.809Z,6.97
2018-11-02T11:32:08.996Z,7.08
2018-11-02T11:33:13.182Z,7.08
2018-11-02T11:34:17.287Z,6.42
2018-11-02T11:35:21.610Z,6.25
2018-11-02T11:36:26.332Z,6.67
2018-11-02T11:37:30.426Z,6.78
2018-11-02T11:38:35.040Z,6.85
2018-11-02T11:39:39.206Z,7.08
2018-11-02T11:40:43.324Z,6.50
2018-11-02T11:41:47.507Z,6.10
2018-11-02T11:42:51.664Z,7.05
2018-11-02T11:43:56.033Z,6.45
2018-11-02T11:45:00.519Z,6.17
2018-11-02T11:46:05.290Z,5.78
2018-11-02T11:47:10.846Z,5.75
2018-11-02T11:48:15.709Z,6.17
2018-11-02T11:49:20.189Z,5.72
2018-11-02T11:50:25.156Z,5.33
2018-11-02T11:51:29.870Z,6.25
2018-11-02T11:52:34.983Z,4.78
2018-11-02T11:53:40.793Z,5.25
2018-11-02T11:54:45.599Z,5.00
2018-11-02T11:55:50.804Z,5.20
2018-11-02T11:56:55.516Z,5.95
2018-11-02T11:58:00.442Z,5.83
2018-11-02T11:59:05.077Z,5.05
2018-11-02T12:00:11.636Z,5.28
2018-11-02T12:01:15.847Z,4.90
2018-11-02T12:02:20.148Z,4.85
2018-11-02T12:03:24.264Z,5.50
2018-11-02T12:04:28.806Z,4.95
2018-11-02T12:05:32.996Z,5.10
2018-11-02T12:06:37.849Z,5.53
2018-11-02T12:07:42.283Z,4.92
2018-11-02T12:08:46.608Z,5.10
2018-11-02T12:09:50.897Z,5.90
2018-11-02T12:10:55.075Z,6.40
2018-11-02T12:11:59.395Z,4.50
2018-11-02T12:13:03.514Z,4.80
2018-11-02T12:14:08.006Z,5.10
2018-11-02T12:15:15.149Z,5.05
2018-11-02T12:16:19.599Z,4.80
2018-11-02T12:17:23.816Z,5.55
2018-11-02T12:18:28.016Z,5.15
2018-11-02T12:19:32.183Z,5.25
2018-11-02T12:20:36.445Z,5.28
2018-11-02T12:21:40.865Z,5.08
2018-11-02T12:22:45.663Z,5.30
2018-11-02T12:23:49.791Z,4.65
2018-11-02T12:24:54.114Z,4.50
2018-11-02T12:25:58.459Z,4.83
2018-11-02T12:27:02.752Z,4.75
2018-11-02T12:28:07.011Z,4.42
2018-11-02T12:29:11.252Z,4.95
2018-11-02T12:30:16.698Z,4.62
2018-11-02T12:31:20.758Z,4.58
2018-11-02T12:32:24.933Z,4.10
2018-11-02T12:33:29.138Z,3.83
2018-11-02T12:34:33.305Z,3.90
2018-11-02T12:35:37.468Z,3.33
2018-11-02T12:36:41.673Z,3.00
2018-11-02T12:37:45.941Z,3.10
2018-11-02T12:38:50.340Z,3.60
2018-11-02T12:39:54.402Z,3.58
2018-11-02T12:40:58.534Z,3.67
2018-11-02T12:42:02.678Z,2.92
2018-11-02T12:43:06.795Z,3.55
2018-11-02T12:44:10.996Z,3.10
2018-11-02T12:45:16.417Z,4.35
2018-11-02T12:46:20.589Z,3.77
2018-11-02T12:47:24.716Z,3.65
2018-11-02T12:48:29.038Z,3.50
2018-11-02T12:49:33.508Z,3.77
2018-11-02T12:50:37.483Z,4.50
2018-11-02T12:51:41.568Z,5.03
2018-11-02T12:52:46.622Z,3.00
2018-11-02T12:53:50.818Z,3.67
2018-11-02T12:54:54.964Z,4.10
2018-11-02T12:55:59.443Z,3.25
2018-11-02T12:57:03.546Z,2.92
2018-11-02T12:58:07.659Z,2.87
2018-11-02T12:59:11.986Z,2.90
2018-11-02T13:00:17.392Z,4.00
2018-11-02T13:01:21.593Z,2.33
2018-11-02T13:02:25.719Z,2.60
2018-11-02T13:03:29.834Z,3.10
2018-11-02T13:04:33.930Z,3.37
2018-11-02T13:05:38.107Z,3.20
2018-11-02T13:06:42.230Z,3.33
2018-11-02T13:07:46.688Z,3.62
2018-11-02T13:08:50.966Z,3.30
2018-11-02T13:09:55.166Z,3.30
2018-11-02T13:10:59.652Z,3.35
2018-11-02T13:12:03.901Z,5.35
2018-11-02T13:13:08.312Z,3.70
2018-11-02T13:14:12.484Z,4.97
2018-11-02T13:15:18.502Z,3.10
2018-11-02T13:16:22.553Z,3.20
2018-11-02T13:17:26.708Z,3.00
2018-11-02T13:18:30.855Z,3.15
2018-11-02T13:19:34.942Z,3.08
2018-11-02T13:20:39.053Z,3.17
2018-11-02T13:21:43.255Z,3.27
2018-11-02T13:22:48.431Z,3.60
2018-11-02T13:23:52.601Z,2.75
2018-11-02T13:24:56.834Z,3.37
2018-11-02T13:26:01.160Z,3.40
2018-11-02T13:27:05.406Z,3.15
2018-11-02T13:28:09.511Z,3.65
2018-11-02T13:29:13.846Z,3.20
2018-11-02T13:30:18.159Z,2.98
2018-11-02T13:31:22.483Z,2.87
2018-11-02T13:32:26.574Z,3.00
2018-11-02T13:33:30.669Z,2.70
2018-11-02T13:34:34.861Z,2.70
2018-11-02T13:35:39.075Z,2.45
2018-11-02T13:36:43.398Z,2.40
2018-11-02T13:37:47.889Z,2.30
2018-11-02T13:38:52.079Z,2.75
2018-11-02T13:39:56.198Z,2.90
2018-11-02T13:41:00.402Z,2.42
2018-11-02T13:42:04.512Z,2.77
2018-11-02T13:43:08.663Z,2.42
2018-11-02T13:44:12.717Z,2.62
2018-11-02T13:45:17.825Z,2.45
2018-11-02T13:46:22.104Z,2.70
2018-11-02T13:47:26.186Z,3.10
2018-11-02T13:48:30.369Z,3.35
2018-11-02T13:49:34.483Z,2.60
2018-11-02T13:50:38.650Z,2.80
2018-11-02T13:51:42.857Z,2.30
2018-11-02T13:52:46.922Z,2.58
2018-11-02T13:53:51.008Z,2.52
2018-11-02T13:54:55.139Z,3.02
2018-11-02T13:55:59.390Z,2.37
2018-11-02T13:57:03.576Z,2.20
2018-11-02T13:58:07.912Z,2.35
2018-11-02T13:59:12.034Z,2.35
2018-11-02T14:00:17.492Z,2.50
2018-11-02T14:01:21.645Z,2.42
2018-11-02T14:02:25.714Z,2.60
2018-11-02T14:03:29.869Z,1.90
2018-11-02T14:04:34.117Z,2.17
2018-11-02T14:05:38.342Z,2.77
2018-11-02T14:06:42.476Z,2.20